This is the latest recevied weather packets stored in our database for station/object KE6LRO. If no packets are shown the sender has not sent any weather packets the latest 10 day(s).
| Time | Temp. | Humidity | Pressure | Rain* | Wind** | Luminosity | Snow |
|---|---|---|---|---|---|---|---|
| 1777649724 | 8.33° C | 68% | 1025.7 hPa | 0 mm | - | 426 W/m² | - |
| 1777649420 | 7.78° C | 67% | 1025.8 hPa | 0 mm | - | 411 W/m² | - |
| 1777649117 | 6.67° C | 71% | 1026 hPa | 0 mm | - | 394 W/m² | - |
| 1777648815 | 6.67° C | 69% | 1025.7 hPa | 0 mm | - | 379 W/m² | - |
| 1777648511 | 5° C | 79% | 1025.8 hPa | 0 mm | - | 351 W/m² | - |
| 1777648209 | 5° C | 77% | 1026.1 hPa | 0 mm | - | 324 W/m² | - |
| 1777647903 | 6.11° C | 76% | 1025.8 hPa | 0 mm | - | 301 W/m² | - |
| 1777647600 | 3.33° C | 84% | 1026 hPa | 0 mm | - | 273 W/m² | - |
| 1777647296 | 3.89° C | 84% | 1026.2 hPa | 0 mm | - | 253 W/m² | - |
| 1777646995 | 2.78° C | 85% | 1026.1 hPa | 0 mm | - | 235 W/m² | - |
| 1777646690 | 1.67° C | 91% | 1026.1 hPa | 0 mm | - | 219 W/m² | - |
| 1777646386 | 1.11° C | 93% | 1026.2 hPa | 0 mm | - | 206 W/m² | - |
| 1777646083 | 0.56° C | 95% | 1026.1 hPa | 0 mm | - | 209 W/m² | - |
| 1777645779 | -0.56° C | 97% | 1026.4 hPa | 0 mm | - | 195 W/m² | - |
| 1777645477 | -1.11° C | 98% | 1026.2 hPa | 0 mm | - | 174 W/m² | - |
| 1777645172 | -1.67° C | 98% | 1026.2 hPa | 0 mm | - | 162 W/m² | - |
| 1777644869 | -2.22° C | 98% | 1026.4 hPa | 0 mm | - | 90 W/m² | - |
| 1777644567 | -2.78° C | 98% | 1026.3 hPa | 0 mm | - | 59 W/m² | - |
| 1777644262 | -3.33° C | 99% | 1026.4 hPa | 0 mm | - | 40 W/m² | - |
| 1777643959 | -3.33° C | 99% | 1026.4 hPa | 0 mm | - | 30 W/m² | - |
| 1777643656 | -3.33° C | 99% | 1026.3 hPa | 0 mm | - | 28 W/m² | - |
| 1777643353 | -3.33° C | 99% | 1026.2 hPa | 0 mm | - | 27 W/m² | - |
| 1777643050 | -3.33° C | 99% | 1026.2 hPa | 0 mm | - | 26 W/m² | - |
| 1777642746 | -3.33° C | 99% | 1026.3 hPa | 0 mm | - | 25 W/m² | - |
| 1777642443 | -3.33° C | 99% | 1026.2 hPa | 0 mm | - | 24 W/m² | - |
* Rain latest hour (hover to see other rain measurements)
** Current wind speed in m/s (hover to see current wind gust speed)